createdAt,value
2023-01-22T00:02:14.577Z,3.97
2023-01-22T00:04:41.792Z,3.78
2023-01-22T00:07:08.995Z,4.80
2023-01-22T00:09:36.147Z,4.43
2023-01-22T00:12:03.393Z,3.83
2023-01-22T00:14:30.527Z,4.43
2023-01-22T00:16:57.741Z,4.25
2023-01-22T00:19:24.909Z,3.90
2023-01-22T00:21:52.101Z,3.55
2023-01-22T00:24:19.362Z,3.72
2023-01-22T00:26:46.500Z,3.75
2023-01-22T00:29:13.714Z,4.13
2023-01-22T00:31:41.049Z,3.85
2023-01-22T00:34:09.066Z,4.30
2023-01-22T00:36:36.229Z,3.80
2023-01-22T00:39:03.458Z,4.20
2023-01-22T00:41:30.674Z,4.18
2023-01-22T00:43:57.999Z,4.28
2023-01-22T00:46:25.144Z,3.75
2023-01-22T00:48:52.350Z,4.75
2023-01-22T00:51:19.572Z,3.72
2023-01-22T00:53:46.880Z,3.67
2023-01-22T00:56:14.524Z,4.00
2023-01-22T00:58:41.665Z,3.70
2023-01-22T01:01:09.063Z,4.03
2023-01-22T01:03:37.535Z,3.93
2023-01-22T01:06:08.702Z,4.07
2023-01-22T01:08:36.600Z,3.23
2023-01-22T01:11:05.179Z,3.67
2023-01-22T01:13:33.306Z,3.33
2023-01-22T01:16:05.004Z,3.28
2023-01-22T01:18:32.201Z,3.53
2023-01-22T01:20:59.936Z,3.60
2023-01-22T01:23:27.364Z,3.88
2023-01-22T01:25:54.594Z,4.03
2023-01-22T01:28:21.819Z,3.30
2023-01-22T01:30:48.982Z,3.47
2023-01-22T01:33:16.200Z,3.40
2023-01-22T01:35:43.354Z,3.47
2023-01-22T01:38:11.045Z,2.80
2023-01-22T01:40:42.514Z,3.35
2023-01-22T01:43:15.645Z,3.10
2023-01-22T01:45:42.964Z,3.30
2023-01-22T01:48:28.917Z,2.47
2023-01-22T01:51:03.913Z,3.28
2023-01-22T01:53:31.159Z,3.03
2023-01-22T01:55:58.376Z,3.10
2023-01-22T01:58:26.274Z,3.00
2023-01-22T02:00:54.995Z,3.10
2023-01-22T02:03:22.166Z,2.70
2023-01-22T02:05:49.401Z,2.80
2023-01-22T02:08:16.613Z,3.58
2023-01-22T02:10:43.857Z,3.30
2023-01-22T02:13:12.426Z,3.40
2023-01-22T02:15:39.706Z,2.60
2023-01-22T02:18:06.856Z,2.90
2023-01-22T02:20:35.380Z,2.42
2023-01-22T02:23:02.525Z,3.08
2023-01-22T02:25:29.682Z,2.83
2023-01-22T02:27:56.853Z,2.53
2023-01-22T02:30:24.163Z,4.22
2023-01-22T02:32:51.345Z,4.15
2023-01-22T02:35:18.521Z,2.77
2023-01-22T02:37:45.694Z,3.38
2023-01-22T02:40:13.075Z,2.83
2023-01-22T02:42:40.318Z,3.05
2023-01-22T02:45:07.740Z,2.53
2023-01-22T02:47:37.679Z,2.60
2023-01-22T02:50:05.021Z,4.45
2023-01-22T02:52:32.232Z,3.05
2023-01-22T02:54:59.448Z,3.70
2023-01-22T02:57:26.596Z,3.22
2023-01-22T02:59:53.835Z,2.55
2023-01-22T03:02:21.810Z,2.38
2023-01-22T03:04:50.160Z,2.67
2023-01-22T03:07:17.877Z,2.35
2023-01-22T03:09:45.508Z,2.55
2023-01-22T03:12:12.923Z,2.87
2023-01-22T03:14:58.557Z,2.40
2023-01-22T03:17:44.782Z,2.72
2023-01-22T03:20:30.628Z,2.90
2023-01-22T03:22:57.934Z,2.72
2023-01-22T03:25:25.087Z,2.00
2023-01-22T03:28:18.855Z,2.22
2023-01-22T03:30:46.095Z,2.42
2023-01-22T03:33:13.250Z,2.08
2023-01-22T03:35:40.421Z,1.80
2023-01-22T03:38:07.602Z,1.60
2023-01-22T03:40:34.814Z,2.10
2023-01-22T03:43:02.163Z,2.15
2023-01-22T03:45:29.341Z,2.10
2023-01-22T03:47:56.492Z,3.20
2023-01-22T03:50:23.629Z,5.00
2023-01-22T03:52:50.827Z,3.05
2023-01-22T03:55:18.006Z,2.50
2023-01-22T03:57:45.142Z,2.50
2023-01-22T04:00:13.786Z,2.40
2023-01-22T04:02:41.028Z,1.70
2023-01-22T04:05:08.498Z,1.95
2023-01-22T04:07:35.686Z,2.07
2023-01-22T04:10:02.825Z,2.38
2023-01-22T04:12:30.054Z,2.20
2023-01-22T04:14:57.215Z,2.00
2023-01-22T04:17:26.636Z,1.80
2023-01-22T04:19:54.061Z,1.83
2023-01-22T04:22:21.217Z,2.35
2023-01-22T04:24:48.345Z,1.60
2023-01-22T04:27:15.514Z,1.60
2023-01-22T04:29:42.661Z,2.05
2023-01-22T04:32:09.812Z,1.80
2023-01-22T04:34:36.961Z,1.83
2023-01-22T04:37:04.131Z,2.40
2023-01-22T04:39:31.450Z,2.00
2023-01-22T04:41:58.622Z,1.70
2023-01-22T04:44:25.786Z,1.67
2023-01-22T04:46:52.973Z,1.83
2023-01-22T04:49:20.148Z,2.55
2023-01-22T04:51:47.377Z,1.58
2023-01-22T04:54:14.518Z,2.08
2023-01-22T04:56:41.680Z,2.15
2023-01-22T04:59:08.957Z,1.70
2023-01-22T05:01:36.855Z,1.90
2023-01-22T05:04:04.061Z,1.70
2023-01-22T05:06:31.355Z,1.92
2023-01-22T05:08:58.533Z,2.10
2023-01-22T05:11:25.724Z,1.95
2023-01-22T05:13:52.909Z,1.65
2023-01-22T05:16:20.054Z,2.20
2023-01-22T05:18:47.209Z,2.30
2023-01-22T05:21:14.388Z,1.60
2023-01-22T05:23:41.562Z,2.45
2023-01-22T05:26:08.763Z,1.90
2023-01-22T05:28:35.977Z,1.90
2023-01-22T05:31:03.305Z,2.55
2023-01-22T05:33:30.616Z,2.10
2023-01-22T05:35:58.282Z,2.08
2023-01-22T05:38:25.600Z,2.00
2023-01-22T05:40:52.903Z,2.22
2023-01-22T05:43:20.061Z,2.58
2023-01-22T05:45:47.233Z,1.77
2023-01-22T05:48:14.420Z,1.83
2023-01-22T05:50:41.649Z,2.40
2023-01-22T05:53:08.871Z,1.75
2023-01-22T05:55:36.181Z,1.73
2023-01-22T05:58:05.455Z,1.58
2023-01-22T06:00:33.500Z,1.40
2023-01-22T06:03:00.813Z,1.58
2023-01-22T06:05:28.077Z,1.92
2023-01-22T06:07:55.265Z,1.50
2023-01-22T06:10:22.432Z,1.80
2023-01-22T06:12:49.621Z,2.53
2023-01-22T06:15:17.030Z,1.30
2023-01-22T06:17:44.198Z,2.15
2023-01-22T06:20:11.556Z,1.88
2023-01-22T06:22:38.806Z,1.65
2023-01-22T06:25:06.164Z,1.60
2023-01-22T06:27:33.321Z,1.30
2023-01-22T06:30:00.557Z,1.77
2023-01-22T06:32:27.763Z,1.40
2023-01-22T06:34:54.941Z,1.40
2023-01-22T06:37:22.956Z,1.25
2023-01-22T06:39:50.250Z,2.08
2023-01-22T06:42:17.407Z,1.67
2023-01-22T06:44:44.529Z,1.27
2023-01-22T06:47:12.803Z,1.33
2023-01-22T06:49:39.948Z,1.30
2023-01-22T06:52:07.298Z,1.27
2023-01-22T06:54:34.481Z,2.08
2023-01-22T06:57:01.672Z,1.35
2023-01-22T06:59:28.867Z,1.80
2023-01-22T07:01:57.097Z,1.20
2023-01-22T07:04:24.260Z,2.15
2023-01-22T07:06:51.434Z,1.63
2023-01-22T07:09:18.611Z,1.65
2023-01-22T07:11:45.754Z,1.40
2023-01-22T07:14:12.974Z,1.77
2023-01-22T07:16:40.119Z,1.40
2023-01-22T07:19:07.244Z,2.60
2023-01-22T07:21:34.398Z,1.40
2023-01-22T07:24:01.590Z,1.85
2023-01-22T07:26:28.749Z,1.50
2023-01-22T07:28:55.899Z,1.60
2023-01-22T07:31:23.070Z,1.00
2023-01-22T07:33:50.243Z,1.40
2023-01-22T07:36:17.381Z,1.48
2023-01-22T07:38:44.539Z,1.20
2023-01-22T07:41:25.200Z,1.30
2023-01-22T07:43:53.576Z,1.70
2023-01-22T07:46:20.923Z,1.15
2023-01-22T07:48:48.134Z,2.20
2023-01-22T07:51:15.338Z,1.48
2023-01-22T07:53:42.852Z,1.40
2023-01-22T07:56:10.164Z,1.50
2023-01-22T07:58:37.313Z,1.55
2023-01-22T08:01:08.048Z,1.88
2023-01-22T08:03:37.793Z,1.42
2023-01-22T08:06:11.479Z,1.13
2023-01-22T08:08:38.847Z,1.90
2023-01-22T08:11:06.067Z,1.75
2023-01-22T08:13:33.280Z,1.60
2023-01-22T08:16:00.518Z,1.50
2023-01-22T08:18:27.700Z,1.20
2023-01-22T08:20:54.934Z,1.87
2023-01-22T08:23:22.265Z,2.00
2023-01-22T08:25:49.423Z,2.03
2023-01-22T08:28:16.618Z,2.50
2023-01-22T08:30:46.689Z,2.00
2023-01-22T08:33:15.911Z,2.35
2023-01-22T08:35:43.157Z,1.40
2023-01-22T08:38:10.303Z,1.98
2023-01-22T08:40:38.151Z,1.55
2023-01-22T08:43:05.359Z,1.55
2023-01-22T08:45:32.617Z,1.70
2023-01-22T08:48:00.345Z,1.80
2023-01-22T08:50:28.842Z,2.58
2023-01-22T08:52:59.083Z,1.90
2023-01-22T08:55:27.908Z,1.75
2023-01-22T08:57:58.366Z,1.58
2023-01-22T09:00:25.618Z,1.53
2023-01-22T09:02:52.884Z,1.67
2023-01-22T09:05:20.013Z,1.52
2023-01-22T09:07:47.143Z,1.60
2023-01-22T09:10:14.308Z,2.42
2023-01-22T09:12:41.588Z,1.80
2023-01-22T09:15:08.920Z,1.40
2023-01-22T09:17:36.047Z,1.40
2023-01-22T09:20:03.265Z,1.80
2023-01-22T09:22:30.475Z,2.10
2023-01-22T09:24:59.462Z,1.60
2023-01-22T09:27:26.625Z,2.20
2023-01-22T09:29:53.803Z,2.13
2023-01-22T09:32:20.938Z,2.13
2023-01-22T09:34:48.105Z,2.08
2023-01-22T09:37:16.302Z,2.00
2023-01-22T09:39:43.454Z,2.33
2023-01-22T09:42:12.302Z,2.37
2023-01-22T09:44:40.282Z,6.18
2023-01-22T09:47:14.530Z,9.32
2023-01-22T09:49:41.717Z,7.30
2023-01-22T09:52:09.893Z,4.97
2023-01-22T09:54:37.052Z,4.07
2023-01-22T09:57:05.074Z,2.38
2023-01-22T09:59:58.794Z,3.20
2023-01-22T10:02:36.844Z,5.25
2023-01-22T10:05:05.311Z,2.47
2023-01-22T10:07:33.384Z,7.93
2023-01-22T10:10:02.152Z,3.97
2023-01-22T10:12:30.047Z,4.78
2023-01-22T10:14:57.316Z,6.27
2023-01-22T10:17:25.895Z,3.23
2023-01-22T10:19:54.775Z,7.43
2023-01-22T10:22:25.912Z,4.35
2023-01-22T10:24:53.294Z,2.88
2023-01-22T10:27:22.078Z,6.97
2023-01-22T10:30:18.991Z,2.90
2023-01-22T10:32:46.341Z,5.13
2023-01-22T10:35:20.707Z,5.18
2023-01-22T10:37:48.921Z,2.92
2023-01-22T10:40:30.827Z,5.07
2023-01-22T10:43:05.126Z,7.47
2023-01-22T10:45:32.334Z,4.57
2023-01-22T10:48:05.523Z,2.90
2023-01-22T10:50:32.682Z,4.28
2023-01-22T10:52:59.873Z,2.88
2023-01-22T10:55:30.826Z,2.15
2023-01-22T10:58:03.013Z,2.60
2023-01-22T11:00:50.415Z,2.38
2023-01-22T11:03:22.616Z,3.75
2023-01-22T11:05:51.700Z,2.30
2023-01-22T11:08:19.807Z,3.00
2023-01-22T11:10:54.668Z,3.13
2023-01-22T11:13:34.110Z,3.40
2023-01-22T11:16:18.325Z,2.13
2023-01-22T11:19:04.419Z,2.28
2023-01-22T11:21:43.626Z,2.42
2023-01-22T11:24:14.271Z,1.98
2023-01-22T11:26:44.548Z,2.40
2023-01-22T11:29:23.714Z,2.17
2023-01-22T11:31:54.661Z,2.72
2023-01-22T11:34:21.853Z,6.90
2023-01-22T11:36:51.786Z,2.03
2023-01-22T11:39:24.699Z,2.10
2023-01-22T11:41:51.875Z,2.63
2023-01-22T11:44:29.224Z,2.10
2023-01-22T11:46:59.150Z,2.45
2023-01-22T11:49:45.415Z,2.05
2023-01-22T11:52:26.737Z,2.08
2023-01-22T11:55:12.792Z,3.58
2023-01-22T11:57:46.203Z,5.82
2023-01-22T12:00:28.774Z,3.13
2023-01-22T12:03:28.370Z,7.50
2023-01-22T12:05:58.399Z,2.53
2023-01-22T12:08:31.787Z,2.87
2023-01-22T12:11:05.665Z,2.25
2023-01-22T12:13:51.587Z,3.35
2023-01-22T12:16:41.259Z,3.85
2023-01-22T12:19:27.099Z,6.63
2023-01-22T12:21:58.960Z,2.67
2023-01-22T12:24:28.033Z,3.28
2023-01-22T12:27:05.645Z,6.00
2023-01-22T12:29:35.948Z,4.55
2023-01-22T12:32:09.013Z,5.80
2023-01-22T12:34:39.287Z,4.95
2023-01-22T12:37:06.503Z,5.32
2023-01-22T12:39:37.555Z,2.13
2023-01-22T12:42:24.240Z,3.90
2023-01-22T12:44:51.357Z,3.15
2023-01-22T12:47:20.594Z,2.70
2023-01-22T12:49:51.672Z,4.90
2023-01-22T12:52:31.912Z,6.78
2023-01-22T12:54:59.204Z,6.97
2023-01-22T12:57:28.158Z,5.80
2023-01-22T12:59:56.198Z,6.55
2023-01-22T13:02:23.448Z,4.00
2023-01-22T13:04:50.750Z,3.10
2023-01-22T13:07:22.181Z,4.97
2023-01-22T13:09:49.383Z,4.78
2023-01-22T13:12:26.594Z,2.97
2023-01-22T13:14:53.843Z,2.75
2023-01-22T13:17:21.915Z,2.90
2023-01-22T13:19:50.510Z,3.70
2023-01-22T13:22:21.571Z,3.10
2023-01-22T13:24:49.646Z,2.80
2023-01-22T13:27:33.354Z,3.05
2023-01-22T13:30:10.627Z,2.83
2023-01-22T13:32:37.879Z,2.90
2023-01-22T13:35:05.578Z,3.17
2023-01-22T13:37:35.706Z,2.58
2023-01-22T13:40:13.309Z,3.03
2023-01-22T13:42:41.547Z,2.80
2023-01-22T13:45:10.370Z,2.50
2023-01-22T13:47:37.576Z,3.03
2023-01-22T13:50:04.938Z,3.03
2023-01-22T13:52:33.578Z,2.63
2023-01-22T13:55:20.255Z,2.78
2023-01-22T13:57:47.991Z,2.53
2023-01-22T14:00:22.482Z,2.42
2023-01-22T14:02:50.059Z,2.63
2023-01-22T14:05:17.798Z,2.33
2023-01-22T14:07:45.068Z,2.53
2023-01-22T14:10:16.752Z,2.33
2023-01-22T14:12:44.155Z,2.88
2023-01-22T14:15:18.132Z,2.50
2023-01-22T14:17:45.452Z,2.50
2023-01-22T14:20:12.680Z,2.65
2023-01-22T14:22:39.947Z,2.57
2023-01-22T14:25:07.280Z,2.47
2023-01-22T14:27:45.381Z,2.00
2023-01-22T14:30:14.577Z,2.17
2023-01-22T14:32:44.969Z,2.80
2023-01-22T14:35:22.465Z,3.00
2023-01-22T14:37:49.662Z,3.90
2023-01-22T14:40:17.576Z,2.50
2023-01-22T14:42:46.688Z,3.00
2023-01-22T14:45:16.362Z,3.00
2023-01-22T14:47:43.847Z,2.42
2023-01-22T14:50:11.351Z,2.55
2023-01-22T14:52:38.800Z,3.05
2023-01-22T14:55:06.267Z,2.58
2023-01-22T14:57:33.462Z,3.67
2023-01-22T15:00:01.657Z,3.20
2023-01-22T15:02:29.765Z,3.38
2023-01-22T15:04:56.938Z,5.18
2023-01-22T15:07:24.120Z,3.40
2023-01-22T15:09:51.374Z,4.05
2023-01-22T15:12:18.617Z,2.88
2023-01-22T15:14:45.803Z,2.50
2023-01-22T15:17:12.973Z,2.47
2023-01-22T15:19:41.626Z,2.50
2023-01-22T15:22:09.261Z,1.90
2023-01-22T15:24:36.852Z,1.92
2023-01-22T15:27:04.026Z,2.38
2023-01-22T15:29:31.475Z,2.28
2023-01-22T15:31:58.635Z,2.30
2023-01-22T15:34:25.980Z,2.15
2023-01-22T15:36:53.125Z,2.10
2023-01-22T15:39:20.262Z,2.78
2023-01-22T15:41:47.488Z,2.20
2023-01-22T15:44:14.695Z,2.38
2023-01-22T15:46:42.318Z,3.13
2023-01-22T15:49:10.406Z,3.35
2023-01-22T15:51:37.659Z,2.60
2023-01-22T15:54:06.691Z,3.05
2023-01-22T15:56:34.769Z,2.40
2023-01-22T15:59:02.027Z,2.42
2023-01-22T16:01:29.315Z,4.15
2023-01-22T16:03:56.553Z,5.40
2023-01-22T16:06:27.031Z,3.88
2023-01-22T16:08:54.717Z,3.65
2023-01-22T16:11:22.011Z,4.33
2023-01-22T16:13:49.200Z,7.40
2023-01-22T16:16:16.505Z,4.82
2023-01-22T16:18:43.770Z,5.33
2023-01-22T16:21:11.066Z,4.15
2023-01-22T16:23:38.692Z,4.00
2023-01-22T16:26:06.846Z,6.35
2023-01-22T16:28:33.997Z,4.25
2023-01-22T16:31:04.734Z,3.33
2023-01-22T16:33:32.305Z,3.78
2023-01-22T16:36:06.699Z,3.63
2023-01-22T16:38:33.992Z,3.43
2023-01-22T16:41:24.907Z,11.50
2023-01-22T16:43:55.641Z,4.60
2023-01-22T16:46:23.633Z,4.15
2023-01-22T16:48:55.554Z,6.40
2023-01-22T16:51:24.966Z,3.88
2023-01-22T16:53:52.359Z,4.50
2023-01-22T16:56:19.516Z,5.57
2023-01-22T16:58:46.726Z,4.40
2023-01-22T17:01:14.408Z,4.80
2023-01-22T17:03:41.760Z,5.03
2023-01-22T17:06:12.521Z,4.80
2023-01-22T17:08:39.652Z,7.78
2023-01-22T17:11:06.857Z,5.90
2023-01-22T17:13:34.003Z,7.32
2023-01-22T17:16:04.069Z,7.13
2023-01-22T17:18:31.275Z,7.55
2023-01-22T17:21:02.681Z,7.13
2023-01-22T17:23:29.950Z,5.22
2023-01-22T17:25:58.266Z,4.80
2023-01-22T17:28:25.587Z,5.38
2023-01-22T17:30:52.952Z,5.63
2023-01-22T17:33:20.947Z,9.48
2023-01-22T17:35:48.186Z,7.47
2023-01-22T17:38:15.467Z,8.20
2023-01-22T17:40:43.109Z,12.00
2023-01-22T17:43:10.348Z,11.73
2023-01-22T17:45:40.495Z,6.50
2023-01-22T17:48:08.337Z,8.48
2023-01-22T17:50:35.518Z,5.55
2023-01-22T17:53:02.721Z,4.55
2023-01-22T17:55:30.188Z,3.60
2023-01-22T17:57:59.279Z,4.15
2023-01-22T18:00:26.696Z,3.25
2023-01-22T18:02:53.938Z,5.07
2023-01-22T18:05:22.859Z,4.40
2023-01-22T18:07:50.043Z,4.97
2023-01-22T18:10:18.198Z,6.82
2023-01-22T18:12:45.431Z,5.57
2023-01-22T18:15:12.762Z,3.85
2023-01-22T18:17:39.986Z,5.10
2023-01-22T18:20:09.382Z,4.10
2023-01-22T18:22:36.869Z,3.72
2023-01-22T18:25:04.095Z,5.97
2023-01-22T18:27:31.406Z,5.28
2023-01-22T18:29:58.628Z,5.75
2023-01-22T18:32:25.900Z,5.15
2023-01-22T18:34:53.149Z,4.68
2023-01-22T18:37:20.339Z,19.70
2023-01-22T18:39:47.504Z,5.32
2023-01-22T18:42:14.681Z,7.47
2023-01-22T18:44:41.913Z,4.50
2023-01-22T18:47:11.224Z,5.63
2023-01-22T18:49:38.553Z,3.25
2023-01-22T18:52:05.897Z,3.70
2023-01-22T18:54:33.217Z,3.80
2023-01-22T18:57:00.473Z,5.22
2023-01-22T18:59:27.696Z,4.30
2023-01-22T19:01:55.124Z,3.90
2023-01-22T19:04:22.475Z,4.43
2023-01-22T19:06:53.076Z,3.38
2023-01-22T19:09:20.349Z,2.85
2023-01-22T19:11:48.201Z,3.40
2023-01-22T19:14:19.011Z,4.07
2023-01-22T19:16:49.064Z,3.92
2023-01-22T19:19:17.206Z,5.47
2023-01-22T19:21:47.057Z,5.93
2023-01-22T19:24:15.356Z,3.50
2023-01-22T19:26:42.577Z,4.32
2023-01-22T19:29:10.411Z,5.10
2023-01-22T19:31:38.625Z,3.63
2023-01-22T19:34:05.799Z,3.53
2023-01-22T19:36:33.525Z,3.55
2023-01-22T19:39:01.207Z,2.70
2023-01-22T19:41:28.436Z,3.75
2023-01-22T19:43:56.063Z,3.25
2023-01-22T19:46:23.551Z,2.95
2023-01-22T19:48:50.802Z,3.17
2023-01-22T19:51:18.146Z,2.45
2023-01-22T19:53:45.507Z,3.00
2023-01-22T19:56:21.512Z,2.53
2023-01-22T19:58:48.970Z,2.85
2023-01-22T20:01:16.466Z,2.70
2023-01-22T20:03:43.831Z,2.60
2023-01-22T20:06:11.323Z,2.45
2023-01-22T20:08:39.011Z,2.50
2023-01-22T20:11:07.348Z,2.45
2023-01-22T20:13:34.722Z,2.80
2023-01-22T20:16:01.966Z,2.45
2023-01-22T20:18:29.361Z,1.98
2023-01-22T20:20:56.768Z,2.28
2023-01-22T20:23:24.093Z,2.20
2023-01-22T20:25:51.256Z,2.97
2023-01-22T20:28:18.574Z,2.45
2023-01-22T20:30:45.953Z,2.20
2023-01-22T20:33:13.155Z,2.20
2023-01-22T20:35:43.217Z,2.13
2023-01-22T20:38:10.385Z,2.20
2023-01-22T20:40:39.074Z,1.92
2023-01-22T20:43:06.415Z,2.35
2023-01-22T20:45:33.671Z,2.30
2023-01-22T20:48:00.828Z,1.83
2023-01-22T20:50:28.096Z,2.00
2023-01-22T20:52:55.329Z,2.60
2023-01-22T20:55:24.666Z,2.75
2023-01-22T20:57:51.862Z,1.80
2023-01-22T21:00:19.219Z,2.67
2023-01-22T21:02:46.356Z,2.03
2023-01-22T21:05:13.474Z,2.70
2023-01-22T21:07:40.627Z,2.40
2023-01-22T21:10:08.112Z,2.37
2023-01-22T21:12:35.277Z,2.28
2023-01-22T21:15:03.091Z,2.45
2023-01-22T21:17:30.260Z,6.18
2023-01-22T21:19:58.056Z,4.65
2023-01-22T21:22:25.285Z,2.80
2023-01-22T21:24:52.441Z,2.50
2023-01-22T21:27:19.614Z,2.40
2023-01-22T21:29:46.839Z,2.47
2023-01-22T21:32:15.292Z,2.58
2023-01-22T21:34:42.429Z,2.30
2023-01-22T21:37:09.583Z,2.73
2023-01-22T21:39:39.500Z,2.47
2023-01-22T21:42:25.250Z,2.25
2023-01-22T21:45:11.159Z,2.45
2023-01-22T21:47:38.396Z,2.70
2023-01-22T21:50:05.677Z,2.72
2023-01-22T21:52:32.824Z,2.03
2023-01-22T21:54:59.951Z,2.25
2023-01-22T21:57:27.189Z,2.50
2023-01-22T21:59:54.370Z,2.22
2023-01-22T22:02:22.353Z,2.20
2023-01-22T22:04:49.724Z,5.53
2023-01-22T22:07:18.038Z,5.38
2023-01-22T22:09:45.210Z,4.32
2023-01-22T22:12:12.496Z,6.70
2023-01-22T22:14:39.738Z,5.80
2023-01-22T22:17:07.730Z,3.30
2023-01-22T22:19:34.949Z,2.40
2023-01-22T22:22:03.479Z,2.73
2023-01-22T22:24:30.682Z,3.45
2023-01-22T22:26:57.872Z,9.65
2023-01-22T22:29:25.049Z,10.45
2023-01-22T22:31:52.328Z,4.23
2023-01-22T22:34:19.492Z,3.70
2023-01-22T22:36:46.630Z,3.50
2023-01-22T22:39:13.807Z,2.60
2023-01-22T22:41:40.951Z,2.20
2023-01-22T22:44:08.275Z,1.83
2023-01-22T22:46:36.278Z,1.80
2023-01-22T22:49:03.726Z,2.25
2023-01-22T22:51:32.090Z,2.30
2023-01-22T22:54:00.000Z,2.00
2023-01-22T22:56:27.611Z,2.22
2023-01-22T22:58:54.884Z,2.13
2023-01-22T23:01:22.963Z,1.90
2023-01-22T23:03:50.449Z,2.15
2023-01-22T23:06:19.344Z,2.42
2023-01-22T23:08:48.287Z,2.28
2023-01-22T23:11:15.688Z,2.58
2023-01-22T23:13:46.470Z,2.60
2023-01-22T23:16:14.403Z,2.67
2023-01-22T23:18:41.670Z,2.28
2023-01-22T23:21:09.936Z,2.50
2023-01-22T23:23:37.219Z,2.85
2023-01-22T23:26:06.797Z,2.38
2023-01-22T23:28:34.035Z,2.47
2023-01-22T23:31:05.240Z,2.83
2023-01-22T23:33:32.460Z,2.65
2023-01-22T23:36:03.068Z,3.17
2023-01-22T23:38:30.626Z,3.60
2023-01-22T23:41:01.267Z,3.08
2023-01-22T23:43:28.434Z,3.70
2023-01-22T23:45:55.871Z,3.33
2023-01-22T23:48:23.037Z,3.25
2023-01-22T23:50:50.730Z,3.20
2023-01-22T23:53:18.038Z,2.25
2023-01-22T23:55:45.299Z,2.72
2023-01-22T23:58:12.439Z,2.83
